Time;durP1;ratioP1;P1;durP2;ratioP2;P2;SDS_P1;SDS_P2;PMS_P1;PMS_P2;Temp;Humidity;BMP_temperature;BMP_pressure;BME280_temperature;BME280_humidity;BME280_pressure;Samples;Min_cycle;Max_cycle;Signal;HPM_P1;HPM_P2
2023/01/07 00:01:15;;;;;;;49.80;31.33;;;9.20;99.90;;;;;;4993715;28;20054;-66
2023/01/07 00:03:41;;;;;;;51.88;34.00;;;9.30;99.90;;;;;;4993683;28;20690;-67
2023/01/07 00:06:10;;;;;;;52.17;33.60;;;9.30;99.90;;;;;;5007604;28;20097;-66
2023/01/07 00:08:39;;;;;;;52.17;32.22;;;9.30;99.90;;;;;;5009560;28;20041;-66
2023/01/07 00:11:09;;;;;;;57.30;35.55;;;9.30;99.90;;;;;;5002056;28;20177;-67
2023/01/07 00:13:35;;;;;;;55.10;33.80;;;9.40;99.90;;;;;;5003786;28;20077;-69
2023/01/07 00:16:04;;;;;;;52.53;32.03;;;9.40;99.90;;;;;;5008582;28;20042;-67
2023/01/07 00:18:29;;;;;;;;;;;9.40;99.90;;;;;;5005805;28;20403;-67
2023/01/07 00:20:56;;;;;;;52.33;33.58;;;9.40;99.90;;;;;;5008035;28;19925;-67
2023/01/07 00:23:23;;;;;;;50.28;32.03;;;9.50;99.90;;;;;;5008413;28;20156;-67
2023/01/07 00:25:50;;;;;;;53.55;33.45;;;9.40;99.90;;;;;;5010318;28;20034;-67
2023/01/07 00:28:16;;;;;;;53.05;34.67;;;9.50;99.90;;;;;;5009664;28;20056;-67
2023/01/07 00:30:42;;;;;;;57.00;34.03;;;9.50;99.90;;;;;;5007644;28;20041;-67
2023/01/07 00:33:10;;;;;;;42.83;29.70;;;9.50;99.90;;;;;;4994549;28;20637;-67
2023/01/07 00:35:35;;;;;;;52.35;32.33;;;9.60;99.90;;;;;;4985602;28;20047;-67
2023/01/07 00:38:04;;;;;;;48.38;31.80;;;9.60;99.90;;;;;;5009110;28;20065;-67
2023/01/07 00:40:32;;;;;;;52.00;32.33;;;9.60;99.90;;;;;;5010024;28;20503;-67
2023/01/07 00:43:03;;;;;;;55.67;33.50;;;9.70;99.90;;;;;;5009923;28;20042;-67
2023/01/07 00:45:34;;;;;;;49.90;32.53;;;9.70;99.90;;;;;;5009713;28;20072;-67
2023/01/07 00:48:01;;;;;;;52.30;33.25;;;9.70;99.90;;;;;;5005946;28;20124;-67
2023/01/07 00:50:33;;;;;;;48.77;32.23;;;9.70;99.90;;;;;;4990784;28;20074;-67
2023/01/07 00:52:59;;;;;;;53.70;33.75;;;9.80;99.90;;;;;;5006205;28;20120;-67
2023/01/07 00:55:26;;;;;;;52.58;32.95;;;9.80;99.90;;;;;;5009132;28;20057;-67
2023/01/07 00:57:52;;;;;;;51.58;33.00;;;9.80;99.90;;;;;;4976479;28;20064;-67
2023/01/07 01:00:20;;;;;;;54.38;31.88;;;9.80;99.90;;;;;;5008649;28;20067;-67
2023/01/07 01:02:46;;;;;;;51.63;32.55;;;9.80;99.90;;;;;;4991226;28;20172;-67
2023/01/07 01:05:12;;;;;;;48.72;33.17;;;9.70;99.90;;;;;;5003825;28;20069;-67
2023/01/07 01:07:38;;;;;;;50.97;32.55;;;9.80;99.90;;;;;;4977111;28;20071;-67
2023/01/07 01:10:06;;;;;;;49.83;32.40;;;9.80;99.90;;;;;;5001907;28;20045;-67
2023/01/07 01:12:35;;;;;;;53.58;33.92;;;9.80;99.90;;;;;;5009119;28;20049;-68
2023/01/07 01:15:08;;;;;;;53.20;34.08;;;9.90;99.90;;;;;;5008078;28;20081;-67
2023/01/07 01:17:33;;;;;;;51.67;33.47;;;9.90;99.90;;;;;;5008477;28;20137;-67
2023/01/07 01:19:59;;;;;;;54.35;34.35;;;9.90;99.90;;;;;;5007997;28;20172;-67
2023/01/07 01:22:25;;;;;;;51.35;33.25;;;9.90;99.90;;;;;;4990287;28;20505;-67
2023/01/07 01:24:50;;;;;;;50.15;33.70;;;9.90;99.90;;;;;;4988750;28;20755;-67
2023/01/07 01:27:17;;;;;;;47.42;32.78;;;9.90;99.90;;;;;;5002935;28;20543;-67
2023/01/07 01:29:43;;;;;;;50.10;33.03;;;9.90;99.90;;;;;;4991481;28;20045;-67
2023/01/07 01:32:08;;;;;;;62.03;34.67;;;9.90;99.90;;;;;;5008058;28;20054;-67
2023/01/07 01:34:34;;;;;;;55.05;33.17;;;9.90;99.90;;;;;;5008060;28;20046;-67
2023/01/07 01:36:59;;;;;;;62.80;35.65;;;10.00;99.90;;;;;;5008029;28;20053;-67
2023/01/07 01:39:25;;;;;;;51.88;34.08;;;9.90;99.90;;;;;;5008654;28;20046;-67
2023/01/07 01:41:51;;;;;;;62.83;34.90;;;9.90;99.90;;;;;;5007508;28;20531;-68
2023/01/07 01:44:35;;;;;;;54.92;34.83;;;9.90;99.90;;;;;;5007820;28;20503;-68
2023/01/07 01:47:22;;;;;;;59.97;34.40;;;10.00;99.90;;;;;;5000248;28;20046;-67
2023/01/07 01:50:03;;;;;;;63.13;37.20;;;10.00;99.90;;;;;;4991677;28;20050;-68
2023/01/07 01:52:35;;;;;;;53.63;35.03;;;10.00;99.90;;;;;;5007706;28;20042;-67
2023/01/07 01:55:05;;;;;;;55.97;35.85;;;10.00;99.90;;;;;;5007860;28;20056;-67
2023/01/07 01:57:33;;;;;;;55.13;36.28;;;10.00;99.90;;;;;;5007836;28;20080;-67
2023/01/07 01:59:59;;;;;;;65.32;37.70;;;10.00;99.90;;;;;;5006902;28;20522;-67
2023/01/07 02:02:31;;;;;;;60.10;37.05;;;10.00;99.90;;;;;;5007559;28;20041;-68
2023/01/07 02:04:57;;;;;;;63.35;35.97;;;10.10;99.90;;;;;;4992551;28;20130;-67
2023/01/07 02:07:23;;;;;;;61.30;36.55;;;10.00;99.90;;;;;;5007768;28;20125;-68
2023/01/07 02:10:09;;;;;;;55.22;35.67;;;10.10;99.90;;;;;;5006288;28;20128;-68
2023/01/07 02:12:57;;;;;;;53.63;34.13;;;10.10;99.90;;;;;;4994128;28;20085;-68
2023/01/07 02:15:47;;;;;;;60.20;35.15;;;10.10;99.90;;;;;;5006168;28;20419;-67
2023/01/07 02:18:38;;;;;;;52.38;32.85;;;10.10;99.90;;;;;;5007940;28;20042;-67
2023/01/07 02:21:29;;;;;;;53.70;36.00;;;10.00;99.90;;;;;;5007024;28;20153;-67
2023/01/07 02:24:29;;;;;;;50.67;33.03;;;10.10;99.90;;;;;;5007702;28;20084;-67
2023/01/07 02:26:54;;;;;;;53.78;33.97;;;10.10;99.90;;;;;;4995069;28;20046;-68
2023/01/07 02:29:48;;;;;;;50.40;33.75;;;10.10;99.90;;;;;;5006052;28;20178;-67
2023/01/07 02:32:24;;;;;;;52.08;35.65;;;10.10;99.90;;;;;;5007228;28;20053;-67
2023/01/07 02:35:04;;;;;;;54.13;34.10;;;10.10;99.90;;;;;;4999676;28;20050;-67
2023/01/07 02:37:46;;;;;;;52.35;35.95;;;10.10;99.90;;;;;;5006614;28;20053;-67
2023/01/07 02:40:29;;;;;;;56.53;35.85;;;10.10;99.90;;;;;;5006808;28;20107;-67
2023/01/07 02:43:15;;;;;;;53.83;35.08;;;10.10;99.90;;;;;;5006894;28;20477;-67
2023/01/07 02:45:56;;;;;;;53.25;34.58;;;10.10;99.90;;;;;;5006445;28;20053;-68
2023/01/07 02:48:23;;;;;;;49.97;33.10;;;10.10;99.90;;;;;;4995927;28;20057;-67
2023/01/07 02:50:49;;;;;;;55.00;34.65;;;10.10;99.90;;;;;;5005129;28;20081;-67
2023/01/07 02:53:17;;;;;;;57.80;34.65;;;10.10;99.90;;;;;;5007382;28;20574;-67
2023/01/07 02:56:06;;;;;;;48.33;34.55;;;10.10;99.90;;;;;;4988681;28;20056;-67
2023/01/07 02:58:47;;;;;;;48.72;33.33;;;10.10;99.90;;;;;;5002214;28;20041;-67
2023/01/07 03:01:45;;;;;;;52.25;35.78;;;10.10;99.90;;;;;;4996621;28;20054;-67
2023/01/07 03:04:40;;;;;;;49.03;30.98;;;10.10;99.90;;;;;;4980665;28;20050;-68
2023/01/07 03:07:24;;;;;;;51.08;34.03;;;10.10;99.90;;;;;;4992044;28;20085;-67
2023/01/07 03:10:09;;;;;;;49.88;34.47;;;10.10;99.90;;;;;;5007066;28;20069;-67
2023/01/07 03:12:43;;;;;;;52.03;33.72;;;10.10;99.90;;;;;;5007613;28;20073;-67
2023/01/07 03:15:25;;;;;;;50.38;35.72;;;10.20;99.90;;;;;;5006213;28;20935;-67
2023/01/07 03:17:53;;;;;;;44.97;30.38;;;10.10;99.90;;;;;;5007710;28;20052;-67
2023/01/07 03:20:23;;;;;;;48.88;33.80;;;10.20;99.90;;;;;;5007323;28;20192;-67
2023/01/07 03:22:49;;;;;;;46.53;32.72;;;10.10;99.90;;;;;;4989999;28;20049;-67
2023/01/07 03:25:17;;;;;;;45.78;30.38;;;10.20;99.90;;;;;;5004352;28;20056;-67
2023/01/07 03:27:44;;;;;;;;;;;10.20;99.90;;;;;;5008963;28;20518;-67
2023/01/07 03:30:14;;;;;;;47.03;32.45;;;10.10;99.90;;;;;;5009718;28;20011;-67
2023/01/07 03:32:58;;;;;;;48.13;31.02;;;10.10;99.90;;;;;;5010652;28;20832;-67
2023/01/07 03:35:25;;;;;;;50.75;33.45;;;10.10;99.90;;;;;;5010912;28;20175;-68
2023/01/07 03:37:52;;;;;;;46.05;31.75;;;10.10;99.90;;;;;;5010409;28;20053;-67
2023/01/07 03:40:19;;;;;;;46.63;30.10;;;10.10;99.90;;;;;;5009753;28;20107;-67
2023/01/07 03:42:47;;;;;;;48.70;32.55;;;10.10;99.90;;;;;;4979203;28;20046;-67
2023/01/07 03:45:19;;;;;;;43.67;31.00;;;10.10;99.90;;;;;;5008926;28;20056;-67
2023/01/07 03:47:50;;;;;;;41.78;30.35;;;10.10;99.90;;;;;;5005911;28;20042;-68
2023/01/07 03:50:17;;;;;;;51.70;32.25;;;10.10;99.90;;;;;;5002729;28;20112;-67
2023/01/07 03:52:43;;;;;;;51.42;32.42;;;10.10;99.90;;;;;;5009848;28;20121;-68
2023/01/07 03:55:10;;;;;;;46.65;28.33;;;10.10;99.90;;;;;;4992812;28;20126;-67
2023/01/07 03:57:35;;;;;;;43.78;29.45;;;10.10;99.90;;;;;;5010286;28;20069;-67
2023/01/07 04:00:03;;;;;;;55.50;32.92;;;10.10;99.90;;;;;;5009074;28;20088;-67
2023/01/07 04:02:29;;;;;;;42.33;29.00;;;10.10;99.90;;;;;;5009098;28;20048;-68
2023/01/07 04:04:54;;;;;;;42.55;29.05;;;10.10;99.90;;;;;;4991163;28;20148;-68
2023/01/07 04:07:20;;;;;;;39.55;27.85;;;10.10;99.90;;;;;;5000989;28;20038;-68
2023/01/07 04:09:46;;;;;;;40.72;28.38;;;10.10;99.90;;;;;;5007952;28;20038;-67
2023/01/07 04:12:13;;;;;;;44.28;28.27;;;10.10;99.90;;;;;;5009564;28;20048;-67
2023/01/07 04:14:39;;;;;;;42.13;29.60;;;10.10;99.90;;;;;;4981177;28;20782;-68
2023/01/07 04:17:04;;;;;;;36.88;27.65;;;10.10;99.90;;;;;;5007610;28;20042;-68
2023/01/07 04:19:30;;;;;;;41.10;30.27;;;10.10;99.90;;;;;;5009687;28;20073;-67
2023/01/07 04:21:56;;;;;;;41.53;30.02;;;10.00;99.90;;;;;;5008663;28;20046;-67
2023/01/07 04:24:22;;;;;;;40.03;28.65;;;10.00;99.90;;;;;;5003124;28;20498;-68
2023/01/07 04:26:47;;;;;;;39.03;28.73;;;10.00;99.90;;;;;;5002738;28;20116;-68
2023/01/07 04:29:13;;;;;;;48.53;28.67;;;10.00;99.90;;;;;;5009571;28;20539;-68
2023/01/07 04:31:38;;;;;;;36.70;26.60;;;10.00;99.90;;;;;;5009647;28;20085;-68
2023/01/07 04:34:04;;;;;;;41.58;27.08;;;10.00;99.90;;;;;;5004993;28;20077;-67
2023/01/07 04:36:30;;;;;;;42.38;25.70;;;10.00;99.90;;;;;;5007094;28;20526;-68
2023/01/07 04:38:56;;;;;;;33.75;25.13;;;10.00;99.90;;;;;;4981598;28;20158;-68
2023/01/07 04:41:22;;;;;;;34.88;26.80;;;10.00;99.90;;;;;;4988371;28;20053;-68
2023/01/07 04:43:48;;;;;;;38.17;26.05;;;9.90;99.90;;;;;;5003800;28;20519;-68
2023/01/07 04:46:14;;;;;;;31.27;24.08;;;10.00;99.90;;;;;;5009057;28;20054;-68
2023/01/07 04:48:39;;;;;;;35.60;26.00;;;10.00;99.90;;;;;;5008566;28;20513;-68
2023/01/07 04:51:05;;;;;;;34.28;24.67;;;10.00;99.90;;;;;;4990515;28;20116;-68
2023/01/07 04:53:31;;;;;;;36.90;25.05;;;9.90;99.90;;;;;;4997560;28;20421;-67
2023/01/07 04:55:56;;;;;;;34.88;24.80;;;9.90;99.90;;;;;;4993085;28;20053;-68
2023/01/07 04:58:22;;;;;;;33.88;24.67;;;9.90;99.90;;;;;;5007228;28;20529;-67
2023/01/07 05:00:48;;;;;;;29.23;21.15;;;9.90;99.90;;;;;;5003431;28;20062;-67
2023/01/07 05:03:13;;;;;;;35.45;24.98;;;9.90;99.90;;;;;;5008484;28;20516;-67
2023/01/07 05:05:39;;;;;;;31.65;24.70;;;9.90;99.90;;;;;;4986543;28;20074;-67
2023/01/07 05:08:05;;;;;;;30.17;23.80;;;9.90;99.90;;;;;;5006727;28;20097;-67
2023/01/07 05:10:31;;;;;;;38.00;25.05;;;9.90;99.90;;;;;;5008417;28;20046;-67
2023/01/07 05:12:57;;;;;;;35.67;23.42;;;9.90;99.90;;;;;;5008882;28;20038;-67
2023/01/07 05:15:23;;;;;;;26.58;21.42;;;9.90;99.90;;;;;;5007400;28;20484;-67
2023/01/07 05:17:48;;;;;;;32.00;23.05;;;9.80;99.90;;;;;;5007718;28;20046;-67
2023/01/07 05:20:14;;;;;;;31.23;22.52;;;9.80;99.90;;;;;;5007991;28;20091;-67
2023/01/07 05:22:40;;;;;;;31.25;23.38;;;9.80;99.90;;;;;;5008530;28;20062;-67
2023/01/07 05:25:06;;;;;;;33.15;23.45;;;9.80;99.90;;;;;;5008500;28;20116;-67
2023/01/07 05:27:32;;;;;;;35.30;23.13;;;9.80;99.90;;;;;;5008165;28;20034;-67
2023/01/07 05:29:57;;;;;;;29.88;21.58;;;9.80;99.90;;;;;;5007912;28;20040;-67
2023/01/07 05:32:23;;;;;;;30.00;23.13;;;9.80;99.90;;;;;;5003532;28;20525;-67
2023/01/07 05:34:48;;;;;;;28.33;21.23;;;9.90;99.90;;;;;;4983036;28;20125;-68
2023/01/07 05:37:14;;;;;;;28.05;20.48;;;9.90;99.90;;;;;;4985185;28;20064;-68
2023/01/07 05:39:40;;;;;;;28.88;21.42;;;9.80;99.90;;;;;;5003429;28;20050;-68
2023/01/07 05:42:05;;;;;;;29.08;22.67;;;9.90;99.90;;;;;;5007332;28;20072;-68
2023/01/07 05:44:31;;;;;;;25.80;20.90;;;9.90;99.90;;;;;;4998166;28;20045;-68
2023/01/07 05:46:56;;;;;;;31.38;23.33;;;9.90;99.90;;;;;;4990845;28;20103;-68
2023/01/07 05:49:22;;;;;;;28.42;21.23;;;9.90;99.90;;;;;;5004915;28;20095;-68
2023/01/07 05:51:48;;;;;;;28.75;20.52;;;9.90;99.90;;;;;;4988799;28;20042;-68
2023/01/07 05:54:13;;;;;;;26.70;20.48;;;9.90;99.90;;;;;;5002515;28;20065;-68
2023/01/07 05:56:39;;;;;;;22.55;19.45;;;9.80;99.90;;;;;;5007986;28;20046;-68
2023/01/07 05:59:05;;;;;;;23.50;18.58;;;9.90;99.90;;;;;;5005829;28;20036;-68
2023/01/07 06:01:30;;;;;;;30.13;19.98;;;9.90;99.90;;;;;;5008257;28;20038;-68
2023/01/07 06:03:56;;;;;;;31.17;20.90;;;9.90;99.90;;;;;;4990089;28;20050;-68
2023/01/07 06:06:22;;;;;;;26.83;18.92;;;9.90;99.90;;;;;;5007891;28;20041;-68
2023/01/07 06:08:47;;;;;;;27.50;19.40;;;9.90;99.90;;;;;;5007130;28;20035;-68
2023/01/07 06:11:13;;;;;;;32.38;20.40;;;9.80;99.90;;;;;;5006035;28;20108;-68
2023/01/07 06:13:39;;;;;;;21.23;18.67;;;9.90;99.90;;;;;;4988586;28;20049;-68
2023/01/07 06:16:07;;;;;;;25.67;18.17;;;9.90;99.90;;;;;;4989393;28;20129;-68
2023/01/07 06:18:34;;;;;;;25.65;18.63;;;9.90;99.90;;;;;;5003049;28;20172;-67
2023/01/07 06:21:00;;;;;;;21.75;17.65;;;9.80;99.90;;;;;;4997288;28;20038;-68
2023/01/07 06:23:25;;;;;;;26.65;17.55;;;9.90;99.90;;;;;;4998194;28;20455;-68
2023/01/07 06:25:51;;;;;;;25.77;19.23;;;9.80;99.90;;;;;;4995411;28;20041;-68
2023/01/07 06:28:17;;;;;;;21.35;17.52;;;9.90;99.90;;;;;;5004024;28;20499;-68
2023/01/07 06:30:46;;;;;;;20.98;17.08;;;9.80;99.90;;;;;;5007441;28;20122;-68
2023/01/07 06:33:14;;;;;;;30.27;17.48;;;9.80;99.90;;;;;;5007440;28;20050;-67
2023/01/07 06:35:39;;;;;;;20.83;16.73;;;9.80;99.90;;;;;;5007718;28;20823;-68
2023/01/07 06:38:05;;;;;;;23.67;16.65;;;9.80;99.90;;;;;;5007446;28;20054;-67
2023/01/07 06:40:31;;;;;;;19.17;16.63;;;9.80;99.90;;;;;;5000341;28;20742;-68
2023/01/07 06:42:57;;;;;;;22.30;18.45;;;9.80;99.90;;;;;;5007511;28;20406;-67
2023/01/07 06:45:23;;;;;;;21.23;16.08;;;9.80;99.90;;;;;;5007133;28;20042;-68
2023/01/07 06:47:48;;;;;;;26.85;16.80;;;9.80;99.90;;;;;;5008074;28;20042;-68
2023/01/07 06:50:15;;;;;;;27.42;17.27;;;9.80;99.90;;;;;;5006392;28;20466;-67
2023/01/07 06:52:41;;;;;;;22.63;14.10;;;9.90;99.90;;;;;;5005978;28;20775;-68
2023/01/07 06:55:07;;;;;;;20.58;15.80;;;9.80;99.90;;;;;;5007302;28;20060;-68
2023/01/07 06:57:32;;;;;;;19.02;13.45;;;9.90;99.90;;;;;;5007115;28;20481;-68
2023/01/07 06:59:58;;;;;;;24.90;15.90;;;9.90;99.90;;;;;;5004671;28;20038;-68
2023/01/07 07:02:26;;;;;;;18.13;16.13;;;9.80;99.90;;;;;;5002569;28;20446;-68
2023/01/07 07:04:52;;;;;;;17.48;14.40;;;9.90;99.90;;;;;;5011554;28;20086;-67
2023/01/07 07:07:19;;;;;;;18.20;14.85;;;9.90;99.90;;;;;;5011633;28;20612;-67
2023/01/07 07:09:45;;;;;;;21.05;14.23;;;9.90;99.90;;;;;;4991144;28;20085;-67
2023/01/07 07:12:11;;;;;;;18.85;14.25;;;9.90;99.90;;;;;;4993646;28;20078;-67
2023/01/07 07:14:37;;;;;;;15.20;12.82;;;9.90;99.90;;;;;;5010327;28;20042;-67
2023/01/07 07:17:03;;;;;;;14.63;12.57;;;9.80;99.90;;;;;;5004944;28;20046;-67
2023/01/07 07:19:29;;;;;;;16.08;14.30;;;9.80;99.90;;;;;;5003017;28;20038;-67
2023/01/07 07:21:55;;;;;;;15.48;12.88;;;9.80;99.90;;;;;;5010227;28;20498;-67
2023/01/07 07:24:20;;;;;;;20.50;13.32;;;9.80;99.90;;;;;;5010968;28;20046;-67
2023/01/07 07:26:46;;;;;;;16.60;12.68;;;9.80;99.90;;;;;;5000206;28;20038;-67
2023/01/07 07:29:12;;;;;;;15.35;13.32;;;9.80;99.90;;;;;;5010962;28;20896;-67
2023/01/07 07:31:37;;;;;;;15.23;12.70;;;9.80;99.90;;;;;;5006564;28;20046;-67
2023/01/07 07:34:04;;;;;;;15.40;13.13;;;9.80;99.90;;;;;;5005302;28;20046;-67
2023/01/07 07:36:30;;;;;;;16.42;13.57;;;9.80;99.90;;;;;;4990088;28;20129;-67
2023/01/07 07:38:55;;;;;;;13.90;12.50;;;9.80;99.90;;;;;;4990888;28;20042;-67
2023/01/07 07:41:21;;;;;;;14.77;12.68;;;9.80;99.90;;;;;;4990091;28;20702;-66
2023/01/07 07:43:47;;;;;;;18.50;12.43;;;9.80;99.90;;;;;;4980174;28;20528;-66
2023/01/07 07:46:13;;;;;;;17.27;12.48;;;9.80;99.90;;;;;;4985480;28;20073;-66
2023/01/07 07:48:40;;;;;;;14.75;12.85;;;9.80;99.90;;;;;;4988786;28;20054;-66
2023/01/07 07:51:05;;;;;;;13.52;12.00;;;9.80;99.90;;;;;;4990385;28;20047;-66
2023/01/07 07:53:31;;;;;;;15.30;10.98;;;9.80;99.90;;;;;;4990999;28;20049;-66
2023/01/07 07:55:56;;;;;;;13.02;10.85;;;9.80;99.90;;;;;;4986357;28;20030;-67
2023/01/07 07:58:22;;;;;;;14.27;11.50;;;9.70;99.90;;;;;;4987567;28;20492;-67
2023/01/07 08:00:49;;;;;;;15.38;11.07;;;9.80;99.90;;;;;;4982288;28;20057;-66
2023/01/07 08:03:15;;;;;;;13.73;11.75;;;9.70;99.90;;;;;;4974010;28;20412;-66
2023/01/07 08:05:42;;;;;;;13.50;11.85;;;9.70;99.90;;;;;;4986018;28;20038;-66
2023/01/07 08:08:10;;;;;;;17.97;11.17;;;9.70;99.90;;;;;;4983593;28;20444;-66
2023/01/07 08:10:36;;;;;;;14.35;10.48;;;9.70;99.90;;;;;;4987525;28;20274;-69
2023/01/07 08:13:03;;;;;;;12.48;11.18;;;9.70;99.90;;;;;;4978328;28;20061;-66
2023/01/07 08:15:28;;;;;;;14.48;11.60;;;9.70;99.90;;;;;;4981159;28;20054;-66
2023/01/07 08:18:03;;;;;;;12.40;10.70;;;9.70;99.90;;;;;;4981700;28;20635;-66
2023/01/07 08:20:29;;;;;;;19.00;11.80;;;9.70;99.90;;;;;;4983153;28;20057;-66
2023/01/07 08:22:59;;;;;;;13.20;10.45;;;9.70;99.90;;;;;;4989865;28;20054;-66
2023/01/07 08:25:25;;;;;;;17.02;11.82;;;9.70;99.90;;;;;;4989271;28;20626;-67
2023/01/07 08:27:51;;;;;;;17.48;12.35;;;9.60;99.90;;;;;;4990205;28;20085;-65
2023/01/07 08:30:17;;;;;;;14.82;11.93;;;9.70;99.90;;;;;;4990023;28;20408;-66
2023/01/07 08:32:43;;;;;;;17.60;11.73;;;9.70;99.90;;;;;;4985014;28;20619;-66
2023/01/07 08:35:08;;;;;;;16.67;11.48;;;9.70;99.90;;;;;;4992682;28;20108;-66
2023/01/07 08:37:34;;;;;;;14.48;12.00;;;9.70;99.90;;;;;;5004522;28;20049;-66
2023/01/07 08:40:00;;;;;;;17.75;13.68;;;9.70;99.90;;;;;;5008830;28;20096;-66
2023/01/07 08:42:25;;;;;;;17.75;12.70;;;9.70;99.90;;;;;;5009258;28;20045;-67
2023/01/07 08:44:54;;;;;;;13.68;11.65;;;9.60;99.90;;;;;;5008553;28;20033;-67
2023/01/07 08:47:20;;;;;;;13.63;10.63;;;9.70;99.90;;;;;;4982441;28;20050;-68
2023/01/07 08:49:45;;;;;;;15.43;11.77;;;9.60;99.90;;;;;;5008985;28;20475;-68
2023/01/07 08:52:11;;;;;;;14.98;10.65;;;9.60;99.90;;;;;;5008880;28;20088;-69
2023/01/07 08:54:37;;;;;;;14.27;10.43;;;9.60;99.90;;;;;;5007175;28;20037;-69
2023/01/07 08:57:02;;;;;;;12.13;10.45;;;9.60;99.90;;;;;;4998391;28;20122;-69
2023/01/07 08:59:28;;;;;;;11.75;9.98;;;9.60;99.90;;;;;;5009284;28;20121;-69
2023/01/07 09:01:53;;;;;;;12.85;11.38;;;9.60;99.90;;;;;;5008391;28;20050;-69
2023/01/07 09:04:19;;;;;;;13.63;9.23;;;9.60;99.90;;;;;;5003894;28;20056;-68
2023/01/07 09:06:46;;;;;;;14.50;9.25;;;9.60;99.90;;;;;;5006325;28;20405;-69
2023/01/07 09:09:13;;;;;;;14.48;9.40;;;9.70;99.90;;;;;;5004271;28;20042;-69
2023/01/07 09:11:39;;;;;;;13.98;10.18;;;9.70;99.90;;;;;;5003036;28;20045;-68
2023/01/07 09:14:05;;;;;;;12.48;10.27;;;9.70;99.90;;;;;;5008839;28;20683;-69
2023/01/07 09:16:30;;;;;;;10.82;8.45;;;9.70;99.90;;;;;;4991164;28;20501;-69
2023/01/07 09:18:56;;;;;;;8.85;7.95;;;9.70;99.90;;;;;;4979303;28;20072;-68
2023/01/07 09:21:21;;;;;;;10.57;8.88;;;9.80;99.90;;;;;;4990423;28;20046;-68
2023/01/07 09:23:47;;;;;;;10.00;8.13;;;9.80;99.90;;;;;;4991537;28;20483;-68
2023/01/07 09:26:13;;;;;;;11.27;9.07;;;9.80;99.90;;;;;;5006137;28;20048;-69
2023/01/07 09:28:38;;;;;;;9.32;8.43;;;9.80;99.90;;;;;;5004757;28;20403;-69
2023/01/07 09:31:04;;;;;;;10.85;8.38;;;9.80;99.90;;;;;;4979381;28;20057;-69
2023/01/07 09:33:30;;;;;;;9.73;8.35;;;9.80;99.90;;;;;;5005063;28;20045;-69
2023/01/07 09:35:56;;;;;;;8.90;7.63;;;9.80;99.90;;;;;;5008133;28;20107;-69
2023/01/07 09:38:21;;;;;;;12.73;8.10;;;9.90;99.90;;;;;;5006348;28;20108;-69
2023/01/07 09:40:47;;;;;;;9.20;7.97;;;9.90;99.90;;;;;;5006432;28;20213;-69
2023/01/07 09:43:40;;;;;;;9.93;7.55;;;9.90;99.90;;;;;;5007797;28;20034;-69
2023/01/07 09:46:07;;;;;;;9.50;8.02;;;9.90;99.90;;;;;;4994181;28;20070;-70
2023/01/07 09:48:41;;;;;;;7.97;7.18;;;9.90;99.90;;;;;;5007263;28;20044;-69
2023/01/07 09:51:24;;;;;;;8.15;7.45;;;10.00;99.90;;;;;;5005861;28;20233;-69
2023/01/07 09:53:55;;;;;;;13.32;7.25;;;9.90;99.90;;;;;;5008415;28;20839;-69
2023/01/07 09:56:27;;;;;;;8.20;7.03;;;9.90;99.90;;;;;;4988060;28;20065;-72
2023/01/07 09:58:54;;;;;;;8.48;7.18;;;10.00;99.90;;;;;;5007156;28;20042;-68
2023/01/07 10:01:44;;;;;;;7.68;6.57;;;9.90;99.90;;;;;;5006634;28;20514;-69
2023/01/07 10:04:22;;;;;;;9.25;6.95;;;10.00;99.90;;;;;;5007829;28;20057;-68
2023/01/07 10:06:58;;;;;;;7.07;6.38;;;10.00;99.90;;;;;;5007211;28;20042;-68
2023/01/07 10:09:51;;;;;;;10.23;6.75;;;10.00;99.90;;;;;;5006438;28;20096;-69
2023/01/07 10:12:19;;;;;;;6.30;5.70;;;10.00;99.90;;;;;;5007766;28;20042;-68
2023/01/07 10:15:05;;;;;;;7.20;5.38;;;10.00;99.90;;;;;;5006213;28;20049;-69
2023/01/07 10:17:50;;;;;;;7.47;5.70;;;10.00;99.90;;;;;;4983056;28;20056;-68
2023/01/07 10:20:30;;;;;;;8.55;5.65;;;10.10;99.90;;;;;;5006933;28;20068;-68
2023/01/07 10:23:02;;;;;;;7.70;5.75;;;10.10;99.90;;;;;;5000884;28;20048;-68
2023/01/07 10:25:33;;;;;;;5.88;5.15;;;10.10;99.90;;;;;;4981351;28;20042;-69
2023/01/07 10:28:06;;;;;;;7.05;4.53;;;10.10;99.90;;;;;;5007471;28;20056;-68
2023/01/07 10:30:39;;;;;;;6.00;4.60;;;10.20;99.90;;;;;;5008184;28;20109;-68
2023/01/07 10:33:19;;;;;;;4.78;4.18;;;10.10;99.90;;;;;;5007309;28;20045;-68
2023/01/07 10:35:47;;;;;;;6.50;4.70;;;10.20;99.90;;;;;;4960797;28;20057;-68
2023/01/07 10:38:17;;;;;;;;;;;10.20;99.90;;;;;;4994107;28;20065;-68
2023/01/07 10:41:02;;;;;;;4.15;3.65;;;10.20;99.90;;;;;;5010869;28;19928;-68
2023/01/07 10:43:53;;;;;;;7.05;5.15;;;10.20;99.90;;;;;;5007026;28;20051;-67
2023/01/07 10:46:57;;;;;;;5.93;4.13;;;10.30;99.90;;;;;;4977077;28;20096;-68
2023/01/07 10:49:23;;;;;;;4.65;3.97;;;10.30;99.90;;;;;;4992336;28;20054;-68
2023/01/07 10:52:04;;;;;;;4.82;4.22;;;10.30;99.90;;;;;;4990881;28;20054;-67
2023/01/07 10:54:39;;;;;;;5.35;3.92;;;10.30;99.90;;;;;;5010866;28;20045;-68
2023/01/07 10:57:23;;;;;;;4.60;3.85;;;10.30;99.90;;;;;;4993550;28;20097;-69
2023/01/07 10:59:56;;;;;;;4.53;3.83;;;10.30;99.90;;;;;;5007434;28;20133;-69
2023/01/07 11:02:26;;;;;;;6.03;4.57;;;10.40;99.90;;;;;;5011396;28;20064;-67
2023/01/07 11:04:55;;;;;;;5.20;4.63;;;10.40;99.90;;;;;;5005836;28;20046;-66
2023/01/07 11:07:27;;;;;;;6.78;5.60;;;10.40;99.90;;;;;;5006658;28;20121;-67
2023/01/07 11:09:54;;;;;;;6.15;4.45;;;10.40;99.90;;;;;;5007745;28;20045;-66
2023/01/07 11:12:25;;;;;;;5.57;4.30;;;10.40;99.90;;;;;;4994281;28;20054;-67
2023/01/07 11:14:53;;;;;;;4.70;3.90;;;10.40;99.90;;;;;;5010741;28;20456;-66
2023/01/07 11:17:45;;;;;;;7.03;3.80;;;10.40;99.90;;;;;;5011124;28;20081;-69
2023/01/07 11:20:11;;;;;;;5.38;4.22;;;10.50;99.90;;;;;;5009929;28;20045;-66
2023/01/07 11:22:38;;;;;;;5.55;4.95;;;10.50;99.90;;;;;;5009009;28;20768;-66
2023/01/07 11:25:27;;;;;;;13.75;6.72;;;10.50;99.90;;;;;;5010819;28;20407;-67
2023/01/07 11:27:57;;;;;;;7.13;4.60;;;10.50;99.90;;;;;;5007675;28;20096;-66
2023/01/07 11:30:31;;;;;;;6.03;4.45;;;10.50;99.90;;;;;;5000695;28;20121;-66
2023/01/07 11:33:04;;;;;;;6.35;5.75;;;10.50;99.90;;;;;;4970546;28;20054;-66
2023/01/07 11:35:31;;;;;;;6.53;5.28;;;10.50;99.90;;;;;;5003631;28;20491;-66
2023/01/07 11:37:58;;;;;;;10.30;5.63;;;10.50;99.90;;;;;;5003518;28;20393;-66
2023/01/07 11:40:30;;;;;;;7.30;4.30;;;10.50;99.90;;;;;;4999827;28;20133;-66
2023/01/07 11:43:15;;;;;;;4.28;3.80;;;10.50;99.90;;;;;;5002448;28;20044;-66
2023/01/07 11:45:47;;;;;;;5.15;4.25;;;10.50;99.90;;;;;;5005209;28;20132;-66
2023/01/07 11:48:23;;;;;;;7.05;4.32;;;10.50;99.90;;;;;;5004880;28;20046;-67
2023/01/07 11:50:58;;;;;;;9.02;4.70;;;10.50;99.90;;;;;;4996664;28;20030;-66
2023/01/07 11:53:36;;;;;;;6.68;5.20;;;10.50;99.90;;;;;;5010161;28;20045;-66
2023/01/07 11:56:27;;;;;;;6.65;4.07;;;10.50;99.90;;;;;;5009776;28;20550;-66
2023/01/07 11:59:11;;;;;;;4.07;3.72;;;10.50;99.90;;;;;;4992107;28;20104;-66
2023/01/07 12:01:44;;;;;;;3.85;3.42;;;10.60;99.90;;;;;;4992065;28;20081;-67
2023/01/07 12:04:27;;;;;;;4.07;3.72;;;10.60;99.90;;;;;;4991351;28;20046;-66
2023/01/07 12:06:59;;;;;;;7.10;4.80;;;10.60;99.90;;;;;;5005163;28;20041;-66
2023/01/07 12:09:31;;;;;;;7.22;6.38;;;10.60;99.90;;;;;;5010361;28;20045;-66
2023/01/07 12:11:59;;;;;;;3.67;2.80;;;10.60;99.90;;;;;;5010332;28;20065;-66
2023/01/07 12:14:32;;;;;;;3.53;3.22;;;10.60;99.90;;;;;;5000700;28;20042;-66
2023/01/07 12:17:28;;;;;;;5.13;4.63;;;10.60;99.90;;;;;;5009668;28;20045;-66
2023/01/07 12:20:34;;;;;;;4.32;3.92;;;10.70;99.90;;;;;;4987356;28;20054;-66
2023/01/07 12:23:03;;;;;;;5.55;4.20;;;10.70;99.90;;;;;;4999433;28;20058;-67
2023/01/07 12:26:01;;;;;;;;;;;10.70;99.90;;;;;;5003876;28;20049;-66
2023/01/07 12:28:51;;;;;;;3.33;3.03;;;10.70;99.90;;;;;;4952279;28;19978;-66
2023/01/07 12:31:48;;;;;;;3.85;3.45;;;10.70;99.90;;;;;;4997943;28;20133;-66
2023/01/07 12:34:32;;;;;;;3.67;3.00;;;10.70;99.90;;;;;;5009327;28;20056;-67
2023/01/07 12:37:17;;;;;;;6.70;3.35;;;10.70;99.90;;;;;;4994653;28;20115;-66
2023/01/07 12:39:44;;;;;;;3.75;3.38;;;10.80;99.90;;;;;;5005865;28;20039;-66
2023/01/07 12:42:30;;;;;;;3.38;3.08;;;10.70;99.90;;;;;;5004951;28;20038;-66
2023/01/07 12:45:03;;;;;;;3.50;3.10;;;10.70;99.90;;;;;;5004758;28;20042;-66
2023/01/07 12:47:33;;;;;;;5.05;3.70;;;10.80;99.90;;;;;;5003435;28;20052;-67
2023/01/07 12:50:14;;;;;;;3.95;3.17;;;10.80;99.90;;;;;;5005020;28;20049;-66
2023/01/07 12:52:42;;;;;;;3.22;2.92;;;10.80;99.90;;;;;;5000486;28;20133;-66
2023/01/07 12:55:19;;;;;;;6.38;3.72;;;10.80;99.90;;;;;;4969110;28;20483;-66